sensor_id;sensor_type;location;lat;lon;timestamp;temperature;humidity
29031;DHT22;16122;50.236;11.734;2023-10-09T00:00:31;17.10;81.80
29031;DHT22;16122;50.236;11.734;2023-10-09T00:03:06;17.10;81.70
29031;DHT22;16122;50.236;11.734;2023-10-09T00:05:35;17.10;81.70
29031;DHT22;16122;50.236;11.734;2023-10-09T00:08:15;17.10;81.80
29031;DHT22;16122;50.236;11.734;2023-10-09T00:10:48;17.10;81.70
29031;DHT22;16122;50.236;11.734;2023-10-09T00:13:25;17.10;81.70
29031;DHT22;16122;50.236;11.734;2023-10-09T00:16:07;17.10;81.70
29031;DHT22;16122;50.236;11.734;2023-10-09T00:18:40;17.10;81.70
29031;DHT22;16122;50.236;11.734;2023-10-09T00:21:19;17.10;81.70
29031;DHT22;16122;50.236;11.734;2023-10-09T00:23:46;17.10;81.70
29031;DHT22;16122;50.236;11.734;2023-10-09T00:26:21;17.10;81.60
29031;DHT22;16122;50.236;11.734;2023-10-09T00:28:50;17.10;81.60
29031;DHT22;16122;50.236;11.734;2023-10-09T00:31:17;17.10;81.60
29031;DHT22;16122;50.236;11.734;2023-10-09T00:33:52;17.10;81.50
29031;DHT22;16122;50.236;11.734;2023-10-09T00:36:20;17.10;81.60
29031;DHT22;16122;50.236;11.734;2023-10-09T00:38:54;17.10;81.50
29031;DHT22;16122;50.236;11.734;2023-10-09T00:41:20;17.10;81.50
29031;DHT22;16122;50.236;11.734;2023-10-09T00:43:48;17.10;81.50
29031;DHT22;16122;50.236;11.734;2023-10-09T00:46:17;17.10;81.40
29031;DHT22;16122;50.236;11.734;2023-10-09T00:48:55;17.10;81.50
29031;DHT22;16122;50.236;11.734;2023-10-09T00:51:23;17.10;81.50
29031;DHT22;16122;50.236;11.734;2023-10-09T00:53:57;17.10;81.40
29031;DHT22;16122;50.236;11.734;2023-10-09T00:56:25;17.10;81.30
29031;DHT22;16122;50.236;11.734;2023-10-09T00:58:53;17.10;81.40
29031;DHT22;16122;50.236;11.734;2023-10-09T01:01:26;17.10;81.30
29031;DHT22;16122;50.236;11.734;2023-10-09T01:04:01;17.10;81.30
29031;DHT22;16122;50.236;11.734;2023-10-09T01:06:43;17.10;81.30
29031;DHT22;16122;50.236;11.734;2023-10-09T01:09:13;17.00;81.20
29031;DHT22;16122;50.236;11.734;2023-10-09T01:11:42;17.10;81.30
29031;DHT22;16122;50.236;11.734;2023-10-09T01:14:31;17.00;81.20
29031;DHT22;16122;50.236;11.734;2023-10-09T01:17:03;17.00;81.10
29031;DHT22;16122;50.236;11.734;2023-10-09T01:19:37;17.00;81.10
29031;DHT22;16122;50.236;11.734;2023-10-09T01:22:03;17.00;81.10
29031;DHT22;16122;50.236;11.734;2023-10-09T01:24:39;17.00;81.10
29031;DHT22;16122;50.236;11.734;2023-10-09T01:27:08;17.10;81.20
29031;DHT22;16122;50.236;11.734;2023-10-09T01:29:41;17.00;81.10
29031;DHT22;16122;50.236;11.734;2023-10-09T01:32:11;17.00;81.00
29031;DHT22;16122;50.236;11.734;2023-10-09T01:34:46;17.00;81.10
29031;DHT22;16122;50.236;11.734;2023-10-09T01:37:17;17.00;81.00
29031;DHT22;16122;50.236;11.734;2023-10-09T01:39:57;17.00;81.00
29031;DHT22;16122;50.236;11.734;2023-10-09T01:42:25;17.00;81.00
29031;DHT22;16122;50.236;11.734;2023-10-09T01:45:00;17.00;80.90
29031;DHT22;16122;50.236;11.734;2023-10-09T01:47:44;17.00;81.00
29031;DHT22;16122;50.236;11.734;2023-10-09T01:50:22;17.00;81.00
29031;DHT22;16122;50.236;11.734;2023-10-09T01:52:57;17.00;81.00
29031;DHT22;16122;50.236;11.734;2023-10-09T01:55:26;17.00;81.00
29031;DHT22;16122;50.236;11.734;2023-10-09T01:57:58;17.00;81.00
29031;DHT22;16122;50.236;11.734;2023-10-09T02:00:48;17.00;81.00
29031;DHT22;16122;50.236;11.734;2023-10-09T02:03:17;17.00;81.00
29031;DHT22;16122;50.236;11.734;2023-10-09T02:05:43;17.00;80.90
29031;DHT22;16122;50.236;11.734;2023-10-09T02:08:09;17.00;81.00
29031;DHT22;16122;50.236;11.734;2023-10-09T02:10:39;17.00;80.90
29031;DHT22;16122;50.236;11.734;2023-10-09T02:13:06;17.00;80.90
29031;DHT22;16122;50.236;11.734;2023-10-09T02:15:35;17.00;80.90
29031;DHT22;16122;50.236;11.734;2023-10-09T02:23:32;16.90;80.80
29031;DHT22;16122;50.236;11.734;2023-10-09T02:26:17;17.00;81.00
29031;DHT22;16122;50.236;11.734;2023-10-09T02:28:58;17.00;81.00
29031;DHT22;16122;50.236;11.734;2023-10-09T02:31:28;17.00;81.00
29031;DHT22;16122;50.236;11.734;2023-10-09T02:34:01;17.00;80.90
29031;DHT22;16122;50.236;11.734;2023-10-09T02:36:31;17.00;81.00
29031;DHT22;16122;50.236;11.734;2023-10-09T02:38:57;17.00;80.90
29031;DHT22;16122;50.236;11.734;2023-10-09T02:41:23;17.00;80.90
29031;DHT22;16122;50.236;11.734;2023-10-09T02:43:54;17.00;80.80
29031;DHT22;16122;50.236;11.734;2023-10-09T02:46:36;17.00;80.90
29031;DHT22;16122;50.236;11.734;2023-10-09T02:49:02;17.00;80.90
29031;DHT22;16122;50.236;11.734;2023-10-09T02:51:35;17.00;80.80
29031;DHT22;16122;50.236;11.734;2023-10-09T02:54:08;17.00;80.80
29031;DHT22;16122;50.236;11.734;2023-10-09T02:56:50;16.90;80.70
29031;DHT22;16122;50.236;11.734;2023-10-09T02:59:22;17.00;80.80
29031;DHT22;16122;50.236;11.734;2023-10-09T03:01:49;17.00;80.70
29031;DHT22;16122;50.236;11.734;2023-10-09T03:04:15;16.90;80.60
29031;DHT22;16122;50.236;11.734;2023-10-09T03:06:41;16.90;80.60
29031;DHT22;16122;50.236;11.734;2023-10-09T03:09:20;17.00;80.70
29031;DHT22;16122;50.236;11.734;2023-10-09T03:11:54;17.00;80.70
29031;DHT22;16122;50.236;11.734;2023-10-09T03:14:20;17.00;80.70
29031;DHT22;16122;50.236;11.734;2023-10-09T03:16:52;17.00;80.70
29031;DHT22;16122;50.236;11.734;2023-10-09T03:19:18;16.90;80.60
29031;DHT22;16122;50.236;11.734;2023-10-09T03:21:44;17.00;80.70
29031;DHT22;16122;50.236;11.734;2023-10-09T03:24:10;16.90;80.60
29031;DHT22;16122;50.236;11.734;2023-10-09T03:26:38;16.90;80.60
29031;DHT22;16122;50.236;11.734;2023-10-09T03:29:04;16.90;80.50
29031;DHT22;16122;50.236;11.734;2023-10-09T03:31:36;16.90;80.50
29031;DHT22;16122;50.236;11.734;2023-10-09T03:34:05;16.90;81.30
29031;DHT22;16122;50.236;11.734;2023-10-09T03:36:34;16.90;80.60
29031;DHT22;16122;50.236;11.734;2023-10-09T03:39:05;16.90;80.50
29031;DHT22;16122;50.236;11.734;2023-10-09T03:41:51;16.90;80.50
29031;DHT22;16122;50.236;11.734;2023-10-09T03:44:17;16.90;80.50
29031;DHT22;16122;50.236;11.734;2023-10-09T03:46:46;16.90;80.40
29031;DHT22;16122;50.236;11.734;2023-10-09T03:49:12;16.90;80.40
29031;DHT22;16122;50.236;11.734;2023-10-09T03:51:39;16.90;80.40
29031;DHT22;16122;50.236;11.734;2023-10-09T03:54:05;16.90;80.50
29031;DHT22;16122;50.236;11.734;2023-10-09T03:56:35;16.90;80.50
29031;DHT22;16122;50.236;11.734;2023-10-09T03:59:01;16.90;80.50
29031;DHT22;16122;50.236;11.734;2023-10-09T04:01:30;16.90;80.60
29031;DHT22;16122;50.236;11.734;2023-10-09T04:04:04;16.90;80.90
29031;DHT22;16122;50.236;11.734;2023-10-09T04:06:32;16.90;81.20
29031;DHT22;16122;50.236;11.734;2023-10-09T04:09:04;16.90;81.30
29031;DHT22;16122;50.236;11.734;2023-10-09T04:11:39;16.90;81.70
29031;DHT22;16122;50.236;11.734;2023-10-09T04:14:09;16.90;81.90
29031;DHT22;16122;50.236;11.734;2023-10-09T04:16:47;16.90;82.10
29031;DHT22;16122;50.236;11.734;2023-10-09T04:19:30;16.90;82.10
29031;DHT22;16122;50.236;11.734;2023-10-09T04:22:07;16.90;82.20
29031;DHT22;16122;50.236;11.734;2023-10-09T04:24:35;16.90;82.30
29031;DHT22;16122;50.236;11.734;2023-10-09T04:27:07;16.90;82.50
29031;DHT22;16122;50.236;11.734;2023-10-09T04:29:34;16.90;82.40
29031;DHT22;16122;50.236;11.734;2023-10-09T04:32:12;16.90;82.50
29031;DHT22;16122;50.236;11.734;2023-10-09T04:34:44;16.90;83.10
29031;DHT22;16122;50.236;11.734;2023-10-09T04:37:22;16.90;83.20
29031;DHT22;16122;50.236;11.734;2023-10-09T04:40:09;16.90;83.30
29031;DHT22;16122;50.236;11.734;2023-10-09T04:42:57;16.90;83.20
29031;DHT22;16122;50.236;11.734;2023-10-09T04:45:23;16.90;83.20
29031;DHT22;16122;50.236;11.734;2023-10-09T04:48:08;16.90;83.20
29031;DHT22;16122;50.236;11.734;2023-10-09T04:50:35;16.90;83.60
29031;DHT22;16122;50.236;11.734;2023-10-09T04:53:04;17.00;83.80
29031;DHT22;16122;50.236;11.734;2023-10-09T04:55:41;17.00;83.70
29031;DHT22;16122;50.236;11.734;2023-10-09T04:58:23;17.00;83.70
29031;DHT22;16122;50.236;11.734;2023-10-09T05:00:50;17.00;83.80
29031;DHT22;16122;50.236;11.734;2023-10-09T05:03:25;16.90;83.80
29031;DHT22;16122;50.236;11.734;2023-10-09T05:05:54;17.00;84.10
29031;DHT22;16122;50.236;11.734;2023-10-09T05:08:48;17.00;84.10
29031;DHT22;16122;50.236;11.734;2023-10-09T05:11:15;17.00;84.00
29031;DHT22;16122;50.236;11.734;2023-10-09T05:14:00;16.90;84.00
29031;DHT22;16122;50.236;11.734;2023-10-09T05:16:39;17.00;84.10
29031;DHT22;16122;50.236;11.734;2023-10-09T05:19:31;17.00;84.10
29031;DHT22;16122;50.236;11.734;2023-10-09T05:22:10;17.00;84.00
29031;DHT22;16122;50.236;11.734;2023-10-09T05:24:56;17.00;84.10
29031;DHT22;16122;50.236;11.734;2023-10-09T05:27:22;17.00;84.10
29031;DHT22;16122;50.236;11.734;2023-10-09T05:30:07;17.00;84.10
29031;DHT22;16122;50.236;11.734;2023-10-09T05:32:56;17.00;84.10
29031;DHT22;16122;50.236;11.734;2023-10-09T05:35:29;17.00;84.10
29031;DHT22;16122;50.236;11.734;2023-10-09T05:38:24;17.00;84.10
29031;DHT22;16122;50.236;11.734;2023-10-09T05:40:51;17.00;84.10
29031;DHT22;16122;50.236;11.734;2023-10-09T05:43:30;17.00;84.00
29031;DHT22;16122;50.236;11.734;2023-10-09T05:46:15;17.00;83.90
29031;DHT22;16122;50.236;11.734;2023-10-09T05:48:41;17.00;83.80
29031;DHT22;16122;50.236;11.734;2023-10-09T05:51:06;17.00;83.50
29031;DHT22;16122;50.236;11.734;2023-10-09T05:53:35;17.00;83.30
29031;DHT22;16122;50.236;11.734;2023-10-09T05:56:11;17.00;83.20
29031;DHT22;16122;50.236;11.734;2023-10-09T05:58:56;17.00;83.00
29031;DHT22;16122;50.236;11.734;2023-10-09T06:01:40;17.00;82.90
29031;DHT22;16122;50.236;11.734;2023-10-09T06:04:21;17.00;82.70
29031;DHT22;16122;50.236;11.734;2023-10-09T06:07:00;17.00;82.70
29031;DHT22;16122;50.236;11.734;2023-10-09T06:09:36;17.00;82.60
29031;DHT22;16122;50.236;11.734;2023-10-09T06:12:23;17.00;82.50
29031;DHT22;16122;50.236;11.734;2023-10-09T06:14:58;17.00;82.40
29031;DHT22;16122;50.236;11.734;2023-10-09T06:17:29;17.00;82.50
29031;DHT22;16122;50.236;11.734;2023-10-09T06:20:09;17.00;82.40
29031;DHT22;16122;50.236;11.734;2023-10-09T06:22:55;17.00;82.20
29031;DHT22;16122;50.236;11.734;2023-10-09T06:25:24;17.00;82.20
29031;DHT22;16122;50.236;11.734;2023-10-09T06:27:58;17.00;82.20
29031;DHT22;16122;50.236;11.734;2023-10-09T06:30:24;17.00;82.20
29031;DHT22;16122;50.236;11.734;2023-10-09T06:32:51;17.00;82.10
29031;DHT22;16122;50.236;11.734;2023-10-09T06:35:24;17.00;82.00
29031;DHT22;16122;50.236;11.734;2023-10-09T06:37:59;17.00;82.10
29031;DHT22;16122;50.236;11.734;2023-10-09T06:40:48;17.00;81.90
29031;DHT22;16122;50.236;11.734;2023-10-09T06:43:19;17.00;81.90
29031;DHT22;16122;50.236;11.734;2023-10-09T06:45:52;17.00;81.80
29031;DHT22;16122;50.236;11.734;2023-10-09T06:48:27;17.00;81.90
29031;DHT22;16122;50.236;11.734;2023-10-09T06:51:09;16.90;81.70
29031;DHT22;16122;50.236;11.734;2023-10-09T06:53:52;17.00;81.70
29031;DHT22;16122;50.236;11.734;2023-10-09T06:56:28;16.90;81.60
29031;DHT22;16122;50.236;11.734;2023-10-09T06:58:58;16.90;81.70
29031;DHT22;16122;50.236;11.734;2023-10-09T07:01:27;17.00;81.70
29031;DHT22;16122;50.236;11.734;2023-10-09T07:03:56;16.90;81.60
29031;DHT22;16122;50.236;11.734;2023-10-09T07:06:41;16.90;81.50
29031;DHT22;16122;50.236;11.734;2023-10-09T07:09:06;16.90;81.50
29031;DHT22;16122;50.236;11.734;2023-10-09T07:11:37;17.00;81.60
29031;DHT22;16122;50.236;11.734;2023-10-09T07:19:29;16.90;81.40
29031;DHT22;16122;50.236;11.734;2023-10-09T07:22:17;16.90;81.40
29031;DHT22;16122;50.236;11.734;2023-10-09T07:24:50;16.90;81.40
29031;DHT22;16122;50.236;11.734;2023-10-09T07:27:23;16.90;81.40
29031;DHT22;16122;50.236;11.734;2023-10-09T07:30:08;16.90;81.40
29031;DHT22;16122;50.236;11.734;2023-10-09T07:33:00;16.90;81.30
29031;DHT22;16122;50.236;11.734;2023-10-09T07:35:42;16.90;81.20
29031;DHT22;16122;50.236;11.734;2023-10-09T07:38:23;16.90;81.30
29031;DHT22;16122;50.236;11.734;2023-10-09T07:40:54;16.90;81.20
29031;DHT22;16122;50.236;11.734;2023-10-09T07:43:37;16.90;81.30
29031;DHT22;16122;50.236;11.734;2023-10-09T07:46:13;16.90;81.30
29031;DHT22;16122;50.236;11.734;2023-10-09T07:48:59;16.90;81.80
29031;DHT22;16122;50.236;11.734;2023-10-09T07:51:38;16.90;82.00
29031;DHT22;16122;50.236;11.734;2023-10-09T07:54:04;16.90;82.20
29031;DHT22;16122;50.236;11.734;2023-10-09T07:56:38;16.90;82.30
29031;DHT22;16122;50.236;11.734;2023-10-09T07:59:18;16.90;82.30
29031;DHT22;16122;50.236;11.734;2023-10-09T08:01:46;16.90;82.50
29031;DHT22;16122;50.236;11.734;2023-10-09T08:04:22;16.90;82.50
29031;DHT22;16122;50.236;11.734;2023-10-09T08:07:12;16.90;82.50
29031;DHT22;16122;50.236;11.734;2023-10-09T08:10:03;16.90;82.20
29031;DHT22;16122;50.236;11.734;2023-10-09T08:12:45;16.90;82.10
29031;DHT22;16122;50.236;11.734;2023-10-09T08:15:14;16.90;82.00
29031;DHT22;16122;50.236;11.734;2023-10-09T08:17:56;16.90;81.80
29031;DHT22;16122;50.236;11.734;2023-10-09T08:20:30;16.90;81.80
29031;DHT22;16122;50.236;11.734;2023-10-09T08:23:25;16.90;81.80
29031;DHT22;16122;50.236;11.734;2023-10-09T08:26:14;16.90;81.70
29031;DHT22;16122;50.236;11.734;2023-10-09T08:28:41;16.90;81.70
29031;DHT22;16122;50.236;11.734;2023-10-09T08:31:16;16.90;81.60
29031;DHT22;16122;50.236;11.734;2023-10-09T08:34:03;16.90;81.70
29031;DHT22;16122;50.236;11.734;2023-10-09T08:36:29;16.90;81.60
29031;DHT22;16122;50.236;11.734;2023-10-09T08:39:02;16.90;81.60
29031;DHT22;16122;50.236;11.734;2023-10-09T08:41:42;16.90;81.50
29031;DHT22;16122;50.236;11.734;2023-10-09T08:44:12;16.90;81.60
29031;DHT22;16122;50.236;11.734;2023-10-09T08:46:41;16.90;81.50
29031;DHT22;16122;50.236;11.734;2023-10-09T08:49:09;16.90;81.60
29031;DHT22;16122;50.236;11.734;2023-10-09T08:51:37;16.90;81.50
29031;DHT22;16122;50.236;11.734;2023-10-09T08:54:03;16.90;81.50
29031;DHT22;16122;50.236;11.734;2023-10-09T08:56:30;16.90;81.40
29031;DHT22;16122;50.236;11.734;2023-10-09T08:58:58;16.90;81.50
29031;DHT22;16122;50.236;11.734;2023-10-09T09:01:28;16.90;81.40
29031;DHT22;16122;50.236;11.734;2023-10-09T09:03:58;16.90;81.40
29031;DHT22;16122;50.236;11.734;2023-10-09T09:06:25;16.90;81.30
29031;DHT22;16122;50.236;11.734;2023-10-09T09:08:52;16.90;82.00
29031;DHT22;16122;50.236;11.734;2023-10-09T09:11:25;16.90;81.20
29031;DHT22;16122;50.236;11.734;2023-10-09T09:16:29;16.90;81.20
29031;DHT22;16122;50.236;11.734;2023-10-09T09:21:39;16.90;81.10
29031;DHT22;16122;50.236;11.734;2023-10-09T09:24:08;16.90;81.20
29031;DHT22;16122;50.236;11.734;2023-10-09T09:26:50;16.90;81.10
29031;DHT22;16122;50.236;11.734;2023-10-09T09:29:39;16.90;81.00
29031;DHT22;16122;50.236;11.734;2023-10-09T09:32:12;16.90;81.00
29031;DHT22;16122;50.236;11.734;2023-10-09T09:34:51;16.90;81.00
29031;DHT22;16122;50.236;11.734;2023-10-09T09:37:21;16.90;81.00
29031;DHT22;16122;50.236;11.734;2023-10-09T09:39:47;16.90;81.00
29031;DHT22;16122;50.236;11.734;2023-10-09T09:42:18;16.90;81.10
29031;DHT22;16122;50.236;11.734;2023-10-09T09:44:55;16.90;81.00
29031;DHT22;16122;50.236;11.734;2023-10-09T09:47:21;16.90;81.00
29031;DHT22;16122;50.236;11.734;2023-10-09T09:49:54;16.90;81.50
29031;DHT22;16122;50.236;11.734;2023-10-09T09:52:30;16.90;81.90
29031;DHT22;16122;50.236;11.734;2023-10-09T09:55:06;16.90;81.50
29031;DHT22;16122;50.236;11.734;2023-10-09T09:57:33;16.90;81.30
29031;DHT22;16122;50.236;11.734;2023-10-09T10:00:08;16.90;81.20
29031;DHT22;16122;50.236;11.734;2023-10-09T10:02:44;16.90;81.20
29031;DHT22;16122;50.236;11.734;2023-10-09T10:05:11;16.90;81.70
29031;DHT22;16122;50.236;11.734;2023-10-09T10:07:38;16.90;82.30
29031;DHT22;16122;50.236;11.734;2023-10-09T10:10:34;16.90;81.90
29031;DHT22;16122;50.236;11.734;2023-10-09T10:13:04;17.00;82.60
29031;DHT22;16122;50.236;11.734;2023-10-09T10:15:58;17.00;82.90
29031;DHT22;16122;50.236;11.734;2023-10-09T10:18:33;16.90;83.10
29031;DHT22;16122;50.236;11.734;2023-10-09T10:21:18;16.90;83.70
29031;DHT22;16122;50.236;11.734;2023-10-09T10:24:00;16.90;84.50
29031;DHT22;16122;50.236;11.734;2023-10-09T10:26:32;16.90;85.30
29031;DHT22;16122;50.236;11.734;2023-10-09T10:29:20;16.90;86.10
29031;DHT22;16122;50.236;11.734;2023-10-09T10:32:00;16.90;86.10
29031;DHT22;16122;50.236;11.734;2023-10-09T10:35:02;16.90;86.30
29031;DHT22;16122;50.236;11.734;2023-10-09T10:40:09;16.90;86.20
29031;DHT22;16122;50.236;11.734;2023-10-09T10:43:04;16.90;86.20
29031;DHT22;16122;50.236;11.734;2023-10-09T10:45:39;16.90;86.20
29031;DHT22;16122;50.236;11.734;2023-10-09T10:48:11;16.90;86.10
29031;DHT22;16122;50.236;11.734;2023-10-09T10:51:03;16.90;85.90
29031;DHT22;16122;50.236;11.734;2023-10-09T10:53:30;16.90;85.80
29031;DHT22;16122;50.236;11.734;2023-10-09T10:56:13;17.00;85.80
29031;DHT22;16122;50.236;11.734;2023-10-09T10:58:42;17.00;85.60
29031;DHT22;16122;50.236;11.734;2023-10-09T11:01:31;17.00;85.20
29031;DHT22;16122;50.236;11.734;2023-10-09T11:04:29;16.90;85.00
29031;DHT22;16122;50.236;11.734;2023-10-09T11:07:01;17.00;84.80
29031;DHT22;16122;50.236;11.734;2023-10-09T11:09:48;17.00;84.70
29031;DHT22;16122;50.236;11.734;2023-10-09T11:12:30;17.00;84.50
29031;DHT22;16122;50.236;11.734;2023-10-09T11:15:09;17.00;84.30
29031;DHT22;16122;50.236;11.734;2023-10-09T11:18:02;17.00;84.10
29031;DHT22;16122;50.236;11.734;2023-10-09T11:20:34;17.00;84.00
29031;DHT22;16122;50.236;11.734;2023-10-09T11:23:02;17.00;83.80
29031;DHT22;16122;50.236;11.734;2023-10-09T11:25:38;17.00;83.80
29031;DHT22;16122;50.236;11.734;2023-10-09T11:28:18;17.00;83.70
29031;DHT22;16122;50.236;11.734;2023-10-09T11:31:13;17.00;83.60
29031;DHT22;16122;50.236;11.734;2023-10-09T11:33:52;17.00;83.50
29031;DHT22;16122;50.236;11.734;2023-10-09T11:36:19;17.00;83.40
29031;DHT22;16122;50.236;11.734;2023-10-09T11:38:58;17.00;83.30
29031;DHT22;16122;50.236;11.734;2023-10-09T11:41:43;17.00;83.30
29031;DHT22;16122;50.236;11.734;2023-10-09T11:44:16;17.00;83.20
29031;DHT22;16122;50.236;11.734;2023-10-09T11:47:02;17.00;83.10
29031;DHT22;16122;50.236;11.734;2023-10-09T11:49:55;17.00;83.10
29031;DHT22;16122;50.236;11.734;2023-10-09T11:52:32;17.00;83.00
29031;DHT22;16122;50.236;11.734;2023-10-09T11:55:05;17.00;83.00
29031;DHT22;16122;50.236;11.734;2023-10-09T11:57:33;17.00;83.00
29031;DHT22;16122;50.236;11.734;2023-10-09T12:00:00;17.00;82.90
29031;DHT22;16122;50.236;11.734;2023-10-09T12:02:26;17.00;82.90
29031;DHT22;16122;50.236;11.734;2023-10-09T12:04:53;17.00;82.80
29031;DHT22;16122;50.236;11.734;2023-10-09T12:07:23;17.00;82.80
29031;DHT22;16122;50.236;11.734;2023-10-09T12:09:49;17.00;82.80
29031;DHT22;16122;50.236;11.734;2023-10-09T12:12:17;17.00;82.70
29031;DHT22;16122;50.236;11.734;2023-10-09T12:14:44;17.00;82.70
29031;DHT22;16122;50.236;11.734;2023-10-09T12:17:10;17.00;82.80
29031;DHT22;16122;50.236;11.734;2023-10-09T12:19:37;17.00;83.10
29031;DHT22;16122;50.236;11.734;2023-10-09T12:22:05;17.00;83.40
29031;DHT22;16122;50.236;11.734;2023-10-09T12:24:34;17.00;83.60
29031;DHT22;16122;50.236;11.734;2023-10-09T12:27:00;17.00;83.40
29031;DHT22;16122;50.236;11.734;2023-10-09T12:29:26;17.00;83.00
29031;DHT22;16122;50.236;11.734;2023-10-09T12:31:59;17.00;82.80
29031;DHT22;16122;50.236;11.734;2023-10-09T12:34:25;17.00;82.70
29031;DHT22;16122;50.236;11.734;2023-10-09T12:36:54;17.00;82.70
29031;DHT22;16122;50.236;11.734;2023-10-09T12:39:23;17.00;82.60
29031;DHT22;16122;50.236;11.734;2023-10-09T12:41:49;17.00;82.60
29031;DHT22;16122;50.236;11.734;2023-10-09T12:44:19;17.00;82.60
29031;DHT22;16122;50.236;11.734;2023-10-09T12:46:48;17.00;82.60
29031;DHT22;16122;50.236;11.734;2023-10-09T12:49:20;17.00;82.60
29031;DHT22;16122;50.236;11.734;2023-10-09T12:51:53;17.00;82.60
29031;DHT22;16122;50.236;11.734;2023-10-09T12:54:19;17.00;82.50
29031;DHT22;16122;50.236;11.734;2023-10-09T12:56:53;17.00;82.50
29031;DHT22;16122;50.236;11.734;2023-10-09T12:59:18;17.00;82.60
29031;DHT22;16122;50.236;11.734;2023-10-09T13:01:46;17.00;82.50
29031;DHT22;16122;50.236;11.734;2023-10-09T13:04:17;17.00;82.40
29031;DHT22;16122;50.236;11.734;2023-10-09T13:06:44;17.00;82.40
29031;DHT22;16122;50.236;11.734;2023-10-09T13:09:15;17.00;82.50
29031;DHT22;16122;50.236;11.734;2023-10-09T13:11:42;17.00;82.50
29031;DHT22;16122;50.236;11.734;2023-10-09T13:14:09;17.00;82.40
29031;DHT22;16122;50.236;11.734;2023-10-09T13:16:45;16.90;82.40
29031;DHT22;16122;50.236;11.734;2023-10-09T13:19:11;17.00;82.40
29031;DHT22;16122;50.236;11.734;2023-10-09T13:21:38;16.90;82.30
29031;DHT22;16122;50.236;11.734;2023-10-09T13:24:08;16.90;82.30
29031;DHT22;16122;50.236;11.734;2023-10-09T13:26:42;17.00;82.40
29031;DHT22;16122;50.236;11.734;2023-10-09T13:29:10;16.90;82.30
29031;DHT22;16122;50.236;11.734;2023-10-09T13:31:38;16.90;82.30
29031;DHT22;16122;50.236;11.734;2023-10-09T13:34:05;17.00;82.30
29031;DHT22;16122;50.236;11.734;2023-10-09T13:36:41;16.90;82.30
29031;DHT22;16122;50.236;11.734;2023-10-09T13:39:15;16.90;82.20
29031;DHT22;16122;50.236;11.734;2023-10-09T13:42:04;17.00;82.40
29031;DHT22;16122;50.236;11.734;2023-10-09T13:44:33;16.90;82.20
29031;DHT22;16122;50.236;11.734;2023-10-09T13:47:02;17.00;82.40
29031;DHT22;16122;50.236;11.734;2023-10-09T13:49:31;17.00;82.30
29031;DHT22;16122;50.236;11.734;2023-10-09T13:51:58;16.90;82.20
29031;DHT22;16122;50.236;11.734;2023-10-09T13:54:24;16.90;82.20
29031;DHT22;16122;50.236;11.734;2023-10-09T13:56:56;16.90;82.10
29031;DHT22;16122;50.236;11.734;2023-10-09T13:59:22;17.00;82.30
29031;DHT22;16122;50.236;11.734;2023-10-09T14:01:51;17.00;82.20
29031;DHT22;16122;50.236;11.734;2023-10-09T14:04:20;16.90;82.90
29031;DHT22;16122;50.236;11.734;2023-10-09T14:06:46;16.90;82.10
29031;DHT22;16122;50.236;11.734;2023-10-09T14:09:13;16.90;82.50
29031;DHT22;16122;50.236;11.734;2023-10-09T14:11:58;17.00;82.50
29031;DHT22;16122;50.236;11.734;2023-10-09T14:14:36;17.00;83.50
29031;DHT22;16122;50.236;11.734;2023-10-09T14:17:07;16.90;83.60
29031;DHT22;16122;50.236;11.734;2023-10-09T14:19:41;17.00;83.90
29031;DHT22;16122;50.236;11.734;2023-10-09T14:22:13;17.00;84.10
29031;DHT22;16122;50.236;11.734;2023-10-09T14:24:42;16.90;83.90
29031;DHT22;16122;50.236;11.734;2023-10-09T14:27:11;16.90;84.10
29031;DHT22;16122;50.236;11.734;2023-10-09T14:29:49;17.00;84.20
29031;DHT22;16122;50.236;11.734;2023-10-09T14:32:16;17.00;84.40
29031;DHT22;16122;50.236;11.734;2023-10-09T14:34:45;16.90;84.50
29031;DHT22;16122;50.236;11.734;2023-10-09T14:37:17;16.90;84.40
29031;DHT22;16122;50.236;11.734;2023-10-09T14:39:45;16.90;84.50
29031;DHT22;16122;50.236;11.734;2023-10-09T14:42:17;16.90;84.60
29031;DHT22;16122;50.236;11.734;2023-10-09T14:44:44;17.00;84.60
29031;DHT22;16122;50.236;11.734;2023-10-09T14:47:13;16.90;84.50
29031;DHT22;16122;50.236;11.734;2023-10-09T14:49:47;16.90;84.50
29031;DHT22;16122;50.236;11.734;2023-10-09T14:52:14;16.90;84.50
29031;DHT22;16122;50.236;11.734;2023-10-09T14:54:44;16.90;84.70
29031;DHT22;16122;50.236;11.734;2023-10-09T14:57:11;16.90;84.70
29031;DHT22;16122;50.236;11.734;2023-10-09T14:59:37;17.00;84.50
29031;DHT22;16122;50.236;11.734;2023-10-09T15:02:04;17.00;84.20
29031;DHT22;16122;50.236;11.734;2023-10-09T15:04:33;17.00;83.90
29031;DHT22;16122;50.236;11.734;2023-10-09T15:07:02;17.00;84.10
29031;DHT22;16122;50.236;11.734;2023-10-09T15:09:35;17.00;84.50
29031;DHT22;16122;50.236;11.734;2023-10-09T15:12:07;17.00;84.50
29031;DHT22;16122;50.236;11.734;2023-10-09T15:14:33;17.00;84.60
29031;DHT22;16122;50.236;11.734;2023-10-09T15:16:59;17.00;84.70
29031;DHT22;16122;50.236;11.734;2023-10-09T15:19:25;17.00;84.70
29031;DHT22;16122;50.236;11.734;2023-10-09T15:21:58;17.00;84.80
29031;DHT22;16122;50.236;11.734;2023-10-09T15:24:24;16.90;84.80
29031;DHT22;16122;50.236;11.734;2023-10-09T15:26:51;16.90;85.00
29031;DHT22;16122;50.236;11.734;2023-10-09T15:29:27;16.90;85.00
29031;DHT22;16122;50.236;11.734;2023-10-09T15:32:01;16.90;85.00
29031;DHT22;16122;50.236;11.734;2023-10-09T15:34:40;17.00;85.40
29031;DHT22;16122;50.236;11.734;2023-10-09T15:37:07;17.00;85.60
29031;DHT22;16122;50.236;11.734;2023-10-09T15:39:34;17.00;85.70
29031;DHT22;16122;50.236;11.734;2023-10-09T15:42:01;17.00;85.70
29031;DHT22;16122;50.236;11.734;2023-10-09T15:44:30;17.00;86.00
29031;DHT22;16122;50.236;11.734;2023-10-09T15:47:03;17.00;86.30
29031;DHT22;16122;50.236;11.734;2023-10-09T15:49:29;17.00;86.70
29031;DHT22;16122;50.236;11.734;2023-10-09T15:51:59;17.00;86.90
29031;DHT22;16122;50.236;11.734;2023-10-09T15:54:27;17.00;87.10
29031;DHT22;16122;50.236;11.734;2023-10-09T15:56:54;17.00;87.20
29031;DHT22;16122;50.236;11.734;2023-10-09T15:59:22;17.00;87.30
29031;DHT22;16122;50.236;11.734;2023-10-09T16:01:50;17.00;87.30
29031;DHT22;16122;50.236;11.734;2023-10-09T16:04:17;17.00;87.50
29031;DHT22;16122;50.236;11.734;2023-10-09T16:06:43;17.00;87.80
29031;DHT22;16122;50.236;11.734;2023-10-09T16:09:09;17.00;87.70
29031;DHT22;16122;50.236;11.734;2023-10-09T16:11:47;17.00;87.90